createdAt,value
2022-09-17T00:01:31.183Z,12.20
2022-09-17T00:04:04.606Z,13.10
2022-09-17T00:06:35.658Z,12.20
2022-09-17T00:09:05.600Z,12.50
2022-09-17T00:11:36.190Z,12.90
2022-09-17T00:14:05.127Z,12.90
2022-09-17T00:16:37.563Z,12.80
2022-09-17T00:19:06.667Z,12.70
2022-09-17T00:21:33.543Z,12.70
2022-09-17T00:24:05.335Z,12.50
2022-09-17T00:26:33.482Z,12.40
2022-09-17T00:29:01.231Z,12.50
2022-09-17T00:31:29.719Z,12.70
2022-09-17T00:33:58.590Z,12.40
2022-09-17T00:36:25.768Z,12.60
2022-09-17T00:38:56.243Z,12.80
2022-09-17T00:41:27.570Z,12.80
2022-09-17T00:44:01.563Z,12.60
2022-09-17T00:46:42.541Z,12.00
2022-09-17T00:49:22.721Z,12.20
2022-09-17T00:52:10.025Z,12.40
2022-09-17T00:54:45.059Z,12.20
2022-09-17T00:57:12.423Z,12.40
2022-09-17T00:59:39.423Z,12.40
2022-09-17T01:02:06.620Z,12.60
2022-09-17T01:04:33.692Z,12.20
2022-09-17T01:07:28.412Z,12.50
2022-09-17T01:10:36.235Z,12.50
2022-09-17T01:13:31.778Z,12.80
2022-09-17T01:17:01.766Z,12.60
2022-09-17T01:20:25.609Z,12.90
2022-09-17T01:23:41.595Z,13.00
2022-09-17T01:26:17.428Z,12.70
2022-09-17T01:29:25.994Z,12.60
2022-09-17T01:32:25.339Z,12.70
2022-09-17T01:35:12.265Z,12.90
2022-09-17T01:38:12.327Z,13.00
2022-09-17T01:40:55.971Z,12.90
2022-09-17T01:43:34.874Z,12.70
2022-09-17T01:46:15.053Z,12.50
2022-09-17T01:48:47.416Z,12.70
2022-09-17T01:51:26.855Z,12.30
2022-09-17T01:54:03.436Z,12.40
2022-09-17T01:57:04.621Z,12.50
2022-09-17T01:59:41.820Z,12.30
2022-09-17T02:02:49.033Z,12.10
2022-09-17T02:05:31.090Z,12.70
2022-09-17T02:08:15.149Z,12.20
2022-09-17T02:11:06.984Z,11.90
2022-09-17T02:14:12.860Z,11.50
2022-09-17T02:16:50.373Z,11.50
2022-09-17T02:19:35.602Z,11.90
2022-09-17T02:22:14.239Z,11.90
2022-09-17T02:25:05.393Z,12.20
2022-09-17T02:27:54.969Z,12.00
2022-09-17T02:30:21.886Z,11.70
2022-09-17T02:32:49.023Z,11.60
2022-09-17T02:35:16.557Z,11.60
2022-09-17T02:37:44.607Z,11.50
2022-09-17T02:40:14.952Z,11.40
2022-09-17T02:43:22.910Z,13.70
2022-09-17T02:49:35.022Z,11.90
2022-09-17T02:52:34.658Z,11.70
2022-09-17T02:56:03.480Z,12.30
2022-09-17T02:58:53.661Z,12.70
2022-09-17T03:01:35.014Z,11.70
2022-09-17T03:04:05.078Z,11.70
2022-09-17T03:06:32.324Z,11.60
2022-09-17T03:08:59.229Z,13.00
2022-09-17T03:11:26.172Z,12.20
2022-09-17T03:13:53.126Z,12.40
2022-09-17T03:16:20.054Z,12.40
2022-09-17T03:18:46.977Z,12.30
2022-09-17T03:21:14.379Z,12.10
2022-09-17T03:23:41.306Z,11.40
2022-09-17T03:26:08.273Z,11.70
2022-09-17T03:28:35.191Z,12.10
2022-09-17T03:31:02.134Z,12.10
2022-09-17T03:33:29.074Z,11.90
2022-09-17T03:35:55.930Z,12.30
2022-09-17T03:38:22.923Z,11.90
2022-09-17T03:41:07.538Z,12.00
2022-09-17T03:43:34.963Z,13.50
2022-09-17T03:46:01.933Z,12.00
2022-09-17T03:48:29.629Z,11.10
2022-09-17T03:50:56.848Z,11.70
2022-09-17T03:53:23.960Z,12.10
2022-09-17T03:55:51.028Z,11.90
2022-09-17T03:58:17.921Z,12.10
2022-09-17T04:00:44.968Z,11.80
2022-09-17T04:03:12.216Z,11.90
2022-09-17T04:05:39.117Z,12.00
2022-09-17T04:08:05.994Z,12.30
2022-09-17T04:10:33.024Z,12.40
2022-09-17T04:12:59.911Z,12.30
2022-09-17T04:15:26.866Z,12.40
2022-09-17T04:17:58.027Z,13.50
2022-09-17T04:20:26.092Z,12.20
2022-09-17T04:22:53.856Z,12.30
2022-09-17T04:25:20.791Z,12.10
2022-09-17T04:27:48.684Z,11.60
2022-09-17T04:30:15.788Z,11.30
2022-09-17T04:32:45.164Z,11.50
2022-09-17T04:35:13.119Z,11.60
2022-09-17T04:37:40.389Z,11.80
2022-09-17T04:40:08.480Z,11.70
2022-09-17T04:42:35.468Z,12.20
2022-09-17T04:45:02.345Z,12.00
2022-09-17T04:47:29.289Z,11.90
2022-09-17T04:49:56.172Z,11.70
2022-09-17T04:52:24.814Z,12.00
2022-09-17T04:54:54.546Z,12.00
2022-09-17T04:57:23.496Z,12.20
2022-09-17T04:59:50.424Z,12.00
2022-09-17T05:02:18.104Z,12.30
2022-09-17T05:04:45.030Z,11.70
2022-09-17T05:09:45.236Z,12.10
2022-09-17T05:12:12.136Z,11.90
2022-09-17T05:14:39.084Z,12.20
2022-09-17T05:17:06.035Z,11.90
2022-09-17T05:19:32.921Z,12.00
2022-09-17T05:21:59.970Z,12.20
2022-09-17T05:24:27.319Z,11.50
2022-09-17T05:26:54.219Z,12.00
2022-09-17T05:29:22.447Z,12.10
2022-09-17T05:31:49.408Z,12.00
2022-09-17T05:34:16.376Z,12.30
2022-09-17T05:36:43.263Z,11.80
2022-09-17T05:39:10.124Z,11.90
2022-09-17T05:41:37.039Z,12.20
2022-09-17T05:44:04.108Z,12.10
2022-09-17T05:46:31.360Z,12.20
2022-09-17T05:48:58.718Z,12.20
2022-09-17T05:51:25.694Z,12.10
2022-09-17T05:53:55.426Z,11.90
2022-09-17T05:56:23.941Z,12.00
2022-09-17T05:58:51.165Z,11.50
2022-09-17T06:01:18.325Z,11.70
2022-09-17T06:03:45.262Z,11.80
2022-09-17T06:06:12.154Z,11.80
2022-09-17T06:08:39.083Z,10.90
2022-09-17T06:11:07.521Z,11.40
2022-09-17T06:13:35.609Z,12.00
2022-09-17T06:18:31.841Z,11.30
2022-09-17T06:21:02.140Z,11.30
2022-09-17T06:23:35.118Z,11.10
2022-09-17T06:26:03.272Z,11.60
2022-09-17T06:28:30.260Z,11.50
2022-09-17T06:31:02.695Z,11.20
2022-09-17T06:33:31.652Z,11.00
2022-09-17T06:36:08.522Z,10.80
2022-09-17T06:38:38.131Z,10.80
2022-09-17T06:41:05.332Z,10.30
2022-09-17T06:43:32.239Z,11.20
2022-09-17T06:46:02.176Z,11.40
2022-09-17T06:48:30.882Z,11.60
2022-09-17T06:51:05.584Z,11.80
2022-09-17T06:53:33.031Z,10.70
2022-09-17T06:56:05.912Z,11.40
2022-09-17T06:58:34.353Z,11.10
2022-09-17T07:01:02.368Z,11.10
2022-09-17T07:03:30.890Z,11.30
2022-09-17T07:05:58.478Z,11.20
2022-09-17T07:08:26.179Z,11.40
2022-09-17T07:10:57.224Z,11.40
2022-09-17T07:13:25.779Z,11.30
2022-09-17T07:15:58.132Z,12.00
2022-09-17T07:18:26.124Z,11.80
2022-09-17T07:20:58.503Z,11.80
2022-09-17T07:23:29.362Z,11.80
2022-09-17T07:25:59.495Z,11.70
2022-09-17T07:28:27.478Z,11.90
2022-09-17T07:30:55.666Z,13.10
2022-09-17T07:33:25.644Z,11.50
2022-09-17T07:36:00.930Z,11.30
2022-09-17T07:38:29.673Z,11.30
2022-09-17T07:41:07.629Z,10.70
2022-09-17T07:43:35.837Z,10.80
2022-09-17T07:46:05.600Z,11.10
2022-09-17T07:51:00.566Z,10.50
2022-09-17T07:53:28.064Z,10.80
2022-09-17T07:55:57.668Z,11.10
2022-09-17T07:58:31.146Z,10.70
2022-09-17T08:01:08.268Z,10.60
2022-09-17T08:03:36.537Z,11.20
2022-09-17T08:06:09.593Z,10.20
2022-09-17T08:08:38.589Z,10.90
2022-09-17T08:11:38.135Z,11.00
2022-09-17T08:14:10.359Z,10.80
2022-09-17T08:16:37.379Z,10.60
2022-09-17T08:19:04.507Z,11.50
2022-09-17T08:21:31.662Z,11.40
2022-09-17T08:23:58.880Z,11.40
2022-09-17T08:26:26.753Z,11.60
2022-09-17T08:28:56.369Z,11.20
2022-09-17T08:33:54.036Z,11.20
2022-09-17T08:36:22.905Z,10.80
2022-09-17T08:38:54.073Z,10.30
2022-09-17T08:41:45.983Z,11.90
2022-09-17T08:44:23.459Z,11.00
2022-09-17T08:47:01.308Z,11.20
2022-09-17T08:49:36.573Z,11.50
2022-09-17T08:52:54.192Z,11.40
2022-09-17T08:55:46.407Z,11.40
2022-09-17T08:58:52.751Z,11.20
2022-09-17T09:04:39.100Z,11.40
2022-09-17T09:07:17.318Z,11.40
2022-09-17T09:10:04.344Z,11.50
2022-09-17T09:12:35.083Z,11.60
2022-09-17T09:15:15.747Z,11.60
2022-09-17T09:17:46.697Z,11.60
2022-09-17T09:20:32.571Z,11.30
2022-09-17T09:23:13.895Z,11.50
2022-09-17T09:26:00.242Z,11.80
2022-09-17T09:28:53.574Z,12.30
2022-09-17T09:31:56.230Z,11.40
2022-09-17T09:34:23.919Z,12.00
2022-09-17T09:36:52.423Z,12.10
2022-09-17T09:39:26.128Z,11.80
2022-09-17T09:42:05.827Z,12.50
2022-09-17T09:44:32.858Z,11.90
2022-09-17T09:47:39.120Z,11.80
2022-09-17T09:50:48.703Z,12.00
2022-09-17T09:53:46.092Z,12.00
2022-09-17T09:56:34.110Z,12.00
2022-09-17T10:01:41.765Z,11.70
2022-09-17T10:04:29.287Z,11.70
2022-09-17T10:07:07.200Z,11.60
2022-09-17T10:09:38.435Z,12.10
2022-09-17T10:12:11.425Z,11.70
2022-09-17T10:14:46.703Z,12.00
2022-09-17T10:17:26.910Z,11.70
2022-09-17T10:19:59.867Z,12.30
2022-09-17T10:25:34.936Z,12.20
2022-09-17T10:28:06.144Z,12.20
2022-09-17T10:30:33.231Z,12.10
2022-09-17T10:33:40.979Z,12.20
2022-09-17T10:38:46.157Z,12.80
2022-09-17T10:41:14.587Z,11.80
2022-09-17T10:43:42.264Z,12.10
2022-09-17T10:46:17.174Z,12.30
2022-09-17T10:49:11.347Z,12.30
2022-09-17T10:51:39.365Z,12.40
2022-09-17T10:54:23.506Z,12.20
2022-09-17T10:56:57.318Z,11.90
2022-09-17T10:59:53.497Z,12.20
2022-09-17T11:03:24.318Z,12.20
2022-09-17T11:06:15.384Z,12.20
2022-09-17T11:09:10.068Z,13.70
2022-09-17T11:12:04.160Z,11.00
2022-09-17T11:14:51.177Z,12.30
2022-09-17T11:17:55.170Z,12.40
2022-09-17T11:20:53.467Z,12.30
2022-09-17T11:23:52.585Z,12.30
2022-09-17T11:26:55.840Z,12.20
2022-09-17T11:29:51.877Z,12.80
2022-09-17T11:32:49.780Z,12.40
2022-09-17T11:35:24.173Z,12.40
2022-09-17T11:38:20.839Z,13.00
2022-09-17T11:41:08.108Z,10.70
2022-09-17T11:43:38.819Z,11.90
2022-09-17T11:46:23.725Z,11.10
2022-09-17T11:49:13.672Z,11.30
2022-09-17T11:52:11.210Z,11.00
2022-09-17T11:54:55.243Z,11.40
2022-09-17T11:57:35.398Z,11.00
2022-09-17T12:00:18.565Z,11.40
2022-09-17T12:03:10.879Z,11.60
2022-09-17T12:05:48.806Z,13.20
2022-09-17T12:08:22.903Z,12.20
2022-09-17T12:11:10.233Z,12.20
2022-09-17T12:13:51.499Z,12.30
2022-09-17T12:16:37.078Z,12.40
2022-09-17T12:19:37.684Z,12.40
2022-09-17T12:22:21.393Z,12.10
2022-09-17T12:24:52.237Z,13.10
2022-09-17T12:27:51.383Z,12.40
2022-09-17T12:30:23.357Z,12.80
2022-09-17T12:33:07.931Z,13.10
2022-09-17T12:36:33.079Z,13.50
2022-09-17T12:39:05.903Z,14.10
2022-09-17T12:42:13.077Z,13.00
2022-09-17T12:44:50.608Z,12.90
2022-09-17T12:48:00.906Z,12.70
2022-09-17T12:51:04.265Z,12.60
2022-09-17T12:53:43.917Z,12.00
2022-09-17T12:56:37.758Z,12.60
2022-09-17T12:59:19.289Z,12.90
2022-09-17T13:02:16.402Z,13.60
2022-09-17T13:05:17.221Z,13.30
2022-09-17T13:08:08.030Z,13.20
2022-09-17T13:10:42.035Z,13.20
2022-09-17T13:13:25.304Z,13.60
2022-09-17T13:16:00.970Z,13.20
2022-09-17T13:21:24.754Z,13.90
2022-09-17T13:23:55.164Z,14.20
2022-09-17T13:26:35.611Z,13.40
2022-09-17T13:29:04.414Z,13.50
2022-09-17T13:31:34.565Z,13.50
2022-09-17T13:34:06.531Z,13.50
2022-09-17T13:36:47.016Z,13.50
2022-09-17T13:39:40.451Z,13.20
2022-09-17T13:42:28.914Z,13.60
2022-09-17T13:45:13.305Z,13.70
2022-09-17T13:48:05.815Z,13.30
2022-09-17T13:50:37.693Z,13.30
2022-09-17T13:53:16.738Z,12.60
2022-09-17T13:55:54.691Z,13.80
2022-09-17T13:58:21.718Z,13.50
2022-09-17T14:01:12.057Z,13.50
2022-09-17T14:03:44.430Z,13.40
2022-09-17T14:06:11.430Z,13.60
2022-09-17T14:08:44.544Z,13.20
2022-09-17T14:11:23.809Z,12.90
2022-09-17T14:13:58.398Z,13.30
2022-09-17T14:16:36.840Z,13.50
2022-09-17T14:19:16.044Z,13.20
2022-09-17T14:22:06.061Z,12.90
2022-09-17T14:24:52.327Z,12.90
2022-09-17T14:27:43.685Z,13.10
2022-09-17T14:30:24.103Z,13.60
2022-09-17T14:33:19.500Z,13.30
2022-09-17T14:35:52.717Z,13.70
2022-09-17T14:38:45.869Z,13.70
2022-09-17T14:41:12.982Z,13.60
2022-09-17T14:44:01.445Z,13.40
2022-09-17T14:46:41.263Z,13.90
2022-09-17T14:49:24.565Z,13.10
2022-09-17T14:51:53.739Z,13.10
2022-09-17T14:56:57.543Z,13.70
2022-09-17T14:59:42.020Z,13.30
2022-09-17T15:02:43.765Z,13.50
2022-09-17T15:05:34.070Z,13.60
2022-09-17T15:08:10.135Z,13.50
2022-09-17T15:10:49.072Z,13.20
2022-09-17T15:13:21.928Z,14.50
2022-09-17T15:16:18.011Z,14.10
2022-09-17T15:19:00.097Z,13.50
2022-09-17T15:21:50.213Z,13.50
2022-09-17T15:24:50.385Z,13.60
2022-09-17T15:27:31.837Z,13.60
2022-09-17T15:30:16.252Z,13.50
2022-09-17T15:32:56.605Z,13.80
2022-09-17T15:35:31.577Z,13.90
2022-09-17T15:38:24.097Z,13.20
2022-09-17T15:40:52.024Z,13.30
2022-09-17T15:43:33.972Z,12.60
2022-09-17T15:46:26.660Z,12.60
2022-09-17T15:49:02.468Z,12.50
2022-09-17T15:51:35.956Z,13.70
2022-09-17T15:56:39.373Z,13.40
2022-09-17T15:59:31.333Z,13.30
2022-09-17T16:02:01.579Z,13.60
2022-09-17T16:04:31.698Z,13.30
2022-09-17T16:07:07.856Z,13.30
2022-09-17T16:09:53.898Z,13.60
2022-09-17T16:12:25.299Z,13.40
2022-09-17T16:14:57.794Z,13.30
2022-09-17T16:17:46.675Z,13.30
2022-09-17T16:20:17.789Z,13.30
2022-09-17T16:22:47.856Z,12.80
2022-09-17T16:25:14.984Z,13.00
2022-09-17T16:28:15.467Z,13.10
2022-09-17T16:30:47.650Z,15.40
2022-09-17T16:35:44.241Z,13.20
2022-09-17T16:38:12.831Z,13.10
2022-09-17T16:40:42.727Z,12.80
2022-09-17T16:43:09.959Z,12.80
2022-09-17T16:45:37.206Z,12.50
2022-09-17T16:48:06.031Z,13.80
2022-09-17T16:50:34.331Z,12.80
2022-09-17T16:53:04.860Z,12.70
2022-09-17T16:55:32.407Z,12.70
2022-09-17T16:57:59.385Z,12.80
2022-09-17T17:02:56.891Z,13.00
2022-09-17T17:05:26.057Z,12.60
2022-09-17T17:07:55.241Z,13.00
2022-09-17T17:10:28.536Z,12.80
2022-09-17T17:12:56.427Z,13.30
2022-09-17T17:15:23.800Z,12.70
2022-09-17T17:20:19.221Z,13.00
2022-09-17T17:22:46.201Z,12.80
2022-09-17T17:25:14.684Z,12.90
2022-09-17T17:27:42.452Z,12.90
2022-09-17T17:30:16.554Z,12.80
2022-09-17T17:32:44.970Z,12.60
2022-09-17T17:35:12.157Z,12.80
2022-09-17T17:37:39.323Z,12.10
2022-09-17T17:40:10.062Z,12.10
2022-09-17T17:42:39.483Z,11.60
2022-09-17T17:45:08.354Z,11.80
2022-09-17T17:47:38.659Z,11.60
2022-09-17T17:50:06.302Z,11.30
2022-09-17T17:52:33.251Z,10.70
2022-09-17T17:55:00.253Z,10.90
2022-09-17T17:57:27.202Z,11.10
2022-09-17T17:59:54.117Z,11.20
2022-09-17T18:02:21.291Z,11.60
2022-09-17T18:04:49.023Z,11.40
2022-09-17T18:07:16.090Z,11.50
2022-09-17T18:09:43.126Z,11.80
2022-09-17T18:12:10.110Z,11.90
2022-09-17T18:14:37.108Z,11.40
2022-09-17T18:17:04.047Z,11.70
2022-09-17T18:19:30.982Z,11.40
2022-09-17T18:21:57.911Z,11.20
2022-09-17T18:24:24.906Z,11.20
2022-09-17T18:26:51.870Z,11.20
2022-09-17T18:31:46.497Z,11.90
2022-09-17T18:34:16.135Z,12.40
2022-09-17T18:36:50.758Z,11.80
2022-09-17T18:39:57.497Z,11.90
2022-09-17T18:42:05.497Z,13.10
2022-09-17T18:44:32.672Z,11.10
2022-09-17T18:46:59.686Z,11.30
2022-09-17T18:49:26.662Z,11.40
2022-09-17T18:51:53.543Z,11.70
2022-09-17T18:54:20.484Z,11.30
2022-09-17T18:56:47.410Z,11.60
2022-09-17T18:59:14.335Z,12.00
2022-09-17T19:01:43.141Z,11.70
2022-09-17T19:04:11.174Z,11.60
2022-09-17T19:06:38.151Z,11.60
2022-09-17T19:09:06.241Z,11.60
2022-09-17T19:11:36.166Z,11.90
2022-09-17T19:14:03.195Z,12.40
2022-09-17T19:16:30.571Z,11.20
2022-09-17T19:18:57.696Z,11.20
2022-09-17T19:21:24.608Z,10.90
2022-09-17T19:23:52.784Z,11.20
2022-09-17T19:31:19.820Z,10.40
2022-09-17T19:33:47.571Z,11.60
2022-09-17T19:36:16.970Z,11.30
2022-09-17T19:38:44.730Z,11.40
2022-09-17T19:41:15.345Z,11.40
2022-09-17T19:43:42.953Z,11.10
2022-09-17T19:46:17.720Z,11.20
2022-09-17T19:48:50.570Z,11.00
2022-09-17T19:51:18.633Z,11.10
2022-09-17T19:53:45.992Z,11.00
2022-09-17T19:56:16.494Z,11.40
2022-09-17T19:58:43.810Z,11.10
2022-09-17T20:01:11.518Z,11.10
2022-09-17T20:03:42.816Z,11.20
2022-09-17T20:06:16.921Z,11.50
2022-09-17T20:08:46.972Z,11.00
2022-09-17T20:11:15.014Z,11.00
2022-09-17T20:13:42.014Z,11.00
2022-09-17T20:16:18.825Z,11.30
2022-09-17T20:18:46.677Z,12.20
2022-09-17T20:21:16.764Z,11.50
2022-09-17T20:23:44.021Z,11.30
2022-09-17T20:26:12.519Z,11.10
2022-09-17T20:28:43.514Z,11.50
2022-09-17T20:31:14.406Z,11.40
2022-09-17T20:33:42.144Z,11.40
2022-09-17T20:39:22.052Z,11.10
2022-09-17T20:41:31.215Z,11.40
2022-09-17T20:43:58.641Z,11.70
2022-09-17T20:46:29.389Z,11.40
2022-09-17T20:48:58.178Z,11.10
2022-09-17T20:51:29.287Z,11.10
2022-09-17T20:54:01.460Z,11.30
2022-09-17T20:56:31.669Z,10.90
2022-09-17T20:59:12.923Z,10.90
2022-09-17T21:01:44.530Z,10.80
2022-09-17T21:04:17.325Z,10.70
2022-09-17T21:06:45.811Z,11.00
2022-09-17T21:09:17.346Z,11.00
2022-09-17T21:11:46.403Z,10.40
2022-09-17T21:14:15.808Z,11.10
2022-09-17T21:16:43.341Z,10.30
2022-09-17T21:19:12.590Z,10.50
2022-09-17T21:24:10.005Z,11.40
2022-09-17T21:26:37.524Z,10.70
2022-09-17T21:29:04.613Z,10.50
2022-09-17T21:31:34.085Z,11.70
2022-09-17T21:34:04.225Z,13.90
2022-09-17T21:36:36.611Z,10.60
2022-09-17T21:39:13.524Z,10.60
2022-09-17T21:41:42.949Z,10.60
2022-09-17T21:44:13.926Z,10.80
2022-09-17T21:46:42.413Z,11.20
2022-09-17T21:49:10.350Z,10.80
2022-09-17T21:51:40.582Z,10.80
2022-09-17T21:54:13.734Z,11.40
2022-09-17T21:56:40.884Z,11.10
2022-09-17T21:59:11.570Z,10.30
2022-09-17T22:01:46.423Z,11.50
2022-09-17T22:04:17.444Z,11.40
2022-09-17T22:06:45.511Z,11.30
2022-09-17T22:09:19.865Z,11.50
2022-09-17T22:11:47.358Z,10.90
2022-09-17T22:14:19.541Z,10.80
2022-09-17T22:16:50.949Z,10.80
2022-09-17T22:19:19.819Z,9.50
2022-09-17T22:21:51.332Z,10.80
2022-09-17T22:24:20.908Z,11.00
2022-09-17T22:26:56.445Z,10.90
2022-09-17T22:29:26.528Z,11.80
2022-09-17T22:31:53.561Z,10.50
2022-09-17T22:34:22.662Z,10.90
2022-09-17T22:36:50.338Z,12.80
2022-09-17T22:39:20.806Z,10.50
2022-09-17T22:41:48.354Z,10.70
2022-09-17T22:44:18.383Z,11.00
2022-09-17T22:46:48.482Z,10.30
2022-09-17T22:49:16.159Z,10.10
2022-09-17T22:51:44.892Z,10.40
2022-09-17T22:54:14.204Z,10.20
2022-09-17T22:56:42.311Z,10.60
2022-09-17T22:59:09.791Z,10.40
2022-09-17T23:01:37.562Z,10.70
2022-09-17T23:06:36.480Z,10.40
2022-09-17T23:09:04.240Z,11.00
2022-09-17T23:11:38.133Z,10.70
2022-09-17T23:14:11.566Z,10.20
2022-09-17T23:16:45.533Z,10.60
2022-09-17T23:19:13.573Z,10.50
2022-09-17T23:21:41.456Z,10.40
2022-09-17T23:24:11.337Z,10.60
2022-09-17T23:26:38.271Z,10.50
2022-09-17T23:29:05.903Z,10.60
2022-09-17T23:31:35.242Z,10.80
2022-09-17T23:34:03.807Z,11.10
2022-09-17T23:39:02.609Z,10.80
2022-09-17T23:41:32.678Z,11.00
2022-09-17T23:44:02.745Z,10.70
2022-09-17T23:46:33.187Z,10.10
2022-09-17T23:49:00.513Z,10.60
2022-09-17T23:51:30.944Z,10.70
2022-09-17T23:53:59.198Z,11.10
2022-09-17T23:56:28.208Z,10.40
2022-09-17T23:58:56.856Z,10.50
